sensor_id;sensor_type;location;lat;lon;timestamp;pressure;altitude;pressure_sealevel;temperature;humidity
43683;BME280;29285;52.128;21.060;2023-05-23T12:34:40;100012.42;;;26.57;82.07
43683;BME280;29285;52.128;21.060;2023-05-23T12:39:42;100010.58;;;26.39;81.20
43683;BME280;29285;52.128;21.060;2023-05-23T12:44:44;100003.61;;;26.33;80.72
43683;BME280;29285;52.128;21.060;2023-05-23T12:49:46;100002.14;;;26.15;80.17
43683;BME280;29285;52.128;21.060;2023-05-23T12:54:48;100000.34;;;26.20;79.99
43683;BME280;29285;52.128;21.060;2023-05-23T12:59:50;99995.27;;;26.53;80.39
43683;BME280;29285;52.128;21.060;2023-05-23T13:04:51;100000.27;;;26.73;80.56
43683;BME280;29285;52.128;21.060;2023-05-23T13:09:52;99990.71;;;26.67;79.87
43683;BME280;29285;52.128;21.060;2023-05-23T13:14:53;99978.26;;;26.75;79.59
43683;BME280;29285;52.128;21.060;2023-05-23T13:19:54;99974.11;;;26.79;79.40
43683;BME280;29285;52.128;21.060;2023-05-23T13:24:56;99975.83;;;26.90;79.19
43683;BME280;29285;52.128;21.060;2023-05-23T13:29:57;99970.09;;;27.30;79.57
43683;BME280;29285;52.128;21.060;2023-05-23T13:34:58;99966.23;;;27.74;80.08
43683;BME280;29285;52.128;21.060;2023-05-23T13:40:01;99968.92;;;27.96;79.84
43683;BME280;29285;52.128;21.060;2023-05-23T13:45:03;99966.11;;;28.11;79.39
43683;BME280;29285;52.128;21.060;2023-05-23T13:50:05;99963.06;;;28.25;79.05
43683;BME280;29285;52.128;21.060;2023-05-23T13:55:08;99961.52;;;28.39;78.71
43683;BME280;29285;52.128;21.060;2023-05-23T14:00:09;99959.87;;;28.54;78.57
43683;BME280;29285;52.128;21.060;2023-05-23T14:05:11;99952.27;;;28.68;78.21
43683;BME280;29285;52.128;21.060;2023-05-23T14:10:13;99955.66;;;28.82;77.88
43683;BME280;29285;52.128;21.060;2023-05-23T14:15:15;99959.09;;;28.93;77.55
43683;BME280;29285;52.128;21.060;2023-05-23T14:20:17;99953.17;;;28.93;76.92
43683;BME280;29285;52.128;21.060;2023-05-23T14:25:18;99948.11;;;29.08;76.71
43683;BME280;29285;52.128;21.060;2023-05-23T14:30:19;99938.77;;;29.22;76.52
43683;BME280;29285;52.128;21.060;2023-05-23T14:35:20;99938.94;;;29.18;75.75
43683;BME280;29285;52.128;21.060;2023-05-23T14:40:25;99939.26;;;29.34;75.58
43683;BME280;29285;52.128;21.060;2023-05-23T14:45:26;99935.73;;;29.45;75.33
43683;BME280;29285;52.128;21.060;2023-05-23T14:50:27;99935.96;;;29.52;75.00
43683;BME280;29285;52.128;21.060;2023-05-23T14:55:29;99935.35;;;29.53;74.24
43683;BME280;29285;52.128;21.060;2023-05-23T15:00:30;99936.02;;;29.65;74.12
43683;BME280;29285;52.128;21.060;2023-05-23T15:05:32;99932.91;;;29.67;73.71
43683;BME280;29285;52.128;21.060;2023-05-23T15:10:33;99929.33;;;29.67;73.15
43683;BME280;29285;52.128;21.060;2023-05-23T15:15:34;99928.28;;;29.60;72.39
43683;BME280;29285;52.128;21.060;2023-05-23T15:20:40;99927.98;;;29.75;72.55
43683;BME280;29285;52.128;21.060;2023-05-23T15:25:41;99923.75;;;29.89;72.34
43683;BME280;29285;52.128;21.060;2023-05-23T15:30:42;99922.55;;;30.05;72.13
43683;BME280;29285;52.128;21.060;2023-05-23T15:35:44;99915.75;;;30.24;72.02
43683;BME280;29285;52.128;21.060;2023-05-23T15:40:45;99913.65;;;30.41;71.90
43683;BME280;29285;52.128;21.060;2023-05-23T15:45:49;99911.26;;;30.14;70.72
43683;BME280;29285;52.128;21.060;2023-05-23T15:50:51;99909.15;;;29.90;69.58
43683;BME280;29285;52.128;21.060;2023-05-23T15:55:52;99910.52;;;29.87;69.27
43683;BME280;29285;52.128;21.060;2023-05-23T16:00:54;99907.60;;;29.98;69.16
43683;BME280;29285;52.128;21.060;2023-05-23T16:05:55;99902.74;;;29.90;68.55
43683;BME280;29285;52.128;21.060;2023-05-23T16:10:56;99896.18;;;29.77;67.82
43683;BME280;29285;52.128;21.060;2023-05-23T16:15:57;99897.54;;;29.64;67.28
43683;BME280;29285;52.128;21.060;2023-05-23T16:20:58;99891.30;;;29.55;66.83
43683;BME280;29285;52.128;21.060;2023-05-23T16:26:00;99888.11;;;29.53;66.36
43683;BME280;29285;52.128;21.060;2023-05-23T16:31:01;99888.05;;;29.36;65.70
43683;BME280;29285;52.128;21.060;2023-05-23T16:36:02;99890.39;;;29.11;64.96
43683;BME280;29285;52.128;21.060;2023-05-23T16:41:03;99891.21;;;28.81;64.18
43683;BME280;29285;52.128;21.060;2023-05-23T16:46:04;99893.73;;;28.52;63.41
43683;BME280;29285;52.128;21.060;2023-05-23T16:51:06;99893.13;;;28.19;62.66
43683;BME280;29285;52.128;21.060;2023-05-23T16:56:07;99890.90;;;27.75;61.89
43683;BME280;29285;52.128;21.060;2023-05-23T17:01:08;99897.27;;;27.34;61.18
43683;BME280;29285;52.128;21.060;2023-05-23T17:06:10;99898.79;;;26.94;60.63
43683;BME280;29285;52.128;21.060;2023-05-23T17:11:11;99897.98;;;26.60;60.16
43683;BME280;29285;52.128;21.060;2023-05-23T17:16:12;99896.82;;;26.30;59.82
43683;BME280;29285;52.128;21.060;2023-05-23T17:21:16;99899.52;;;26.07;59.61
43683;BME280;29285;52.128;21.060;2023-05-23T17:26:17;99902.82;;;25.86;59.37
43683;BME280;29285;52.128;21.060;2023-05-23T17:31:18;99899.41;;;25.64;59.15
43683;BME280;29285;52.128;21.060;2023-05-23T17:36:19;99902.36;;;25.41;58.95
43683;BME280;29285;52.128;21.060;2023-05-23T17:41:20;99905.58;;;25.20;58.68
43683;BME280;29285;52.128;21.060;2023-05-23T17:46:24;99907.51;;;24.99;58.58
43683;BME280;29285;52.128;21.060;2023-05-23T17:51:25;99912.47;;;24.81;58.52
43683;BME280;29285;52.128;21.060;2023-05-23T17:56:26;99912.70;;;24.63;58.42
43683;BME280;29285;52.128;21.060;2023-05-23T18:01:27;99919.18;;;24.44;58.28
43683;BME280;29285;52.128;21.060;2023-05-23T18:06:28;99917.70;;;24.27;58.24
43683;BME280;29285;52.128;21.060;2023-05-23T18:11:30;99919.52;;;24.11;58.06
43683;BME280;29285;52.128;21.060;2023-05-23T18:16:31;99916.38;;;23.92;58.05
43683;BME280;29285;52.128;21.060;2023-05-23T18:21:32;99914.90;;;23.74;57.91
43683;BME280;29285;52.128;21.060;2023-05-23T18:26:34;99912.01;;;23.57;57.80
43683;BME280;29285;52.128;21.060;2023-05-23T18:31:40;99915.90;;;23.41;57.88
43683;BME280;29285;52.128;21.060;2023-05-23T18:36:41;99920.46;;;23.22;57.79
43683;BME280;29285;52.128;21.060;2023-05-23T18:41:42;99934.19;;;23.02;57.66
43683;BME280;29285;52.128;21.060;2023-05-23T18:46:44;99936.46;;;22.82;57.60
43683;BME280;29285;52.128;21.060;2023-05-23T18:51:45;99938.42;;;22.68;57.71
43683;BME280;29285;52.128;21.060;2023-05-23T18:56:47;99943.30;;;22.59;57.90
43683;BME280;29285;52.128;21.060;2023-05-23T19:01:49;99946.32;;;22.49;57.98
43683;BME280;29285;52.128;21.060;2023-05-23T19:06:50;99949.29;;;22.34;58.02
43683;BME280;29285;52.128;21.060;2023-05-23T19:11:51;99952.12;;;22.21;58.07
43683;BME280;29285;52.128;21.060;2023-05-23T19:16:53;99955.20;;;22.10;58.15
43683;BME280;29285;52.128;21.060;2023-05-23T19:21:54;99957.26;;;22.01;58.32
43683;BME280;29285;52.128;21.060;2023-05-23T19:26:55;99959.73;;;21.93;58.48
43683;BME280;29285;52.128;21.060;2023-05-23T19:31:57;99958.92;;;21.84;58.68
43683;BME280;29285;52.128;21.060;2023-05-23T19:36:58;99959.62;;;21.77;58.80
43683;BME280;29285;52.128;21.060;2023-05-23T19:42:01;99969.10;;;21.72;59.00
43683;BME280;29285;52.128;21.060;2023-05-23T19:47:02;99975.67;;;21.69;59.24
43683;BME280;29285;52.128;21.060;2023-05-23T19:52:04;99971.39;;;21.64;59.41
43683;BME280;29285;52.128;21.060;2023-05-23T19:57:05;99971.91;;;21.59;59.54
43683;BME280;29285;52.128;21.060;2023-05-23T20:02:08;99970.27;;;21.52;59.63
43683;BME280;29285;52.128;21.060;2023-05-23T20:07:10;99970.34;;;21.43;59.66
43683;BME280;29285;52.128;21.060;2023-05-23T20:12:11;99972.85;;;21.32;59.71
43683;BME280;29285;52.128;21.060;2023-05-23T20:17:12;99970.44;;;21.23;59.81
43683;BME280;29285;52.128;21.060;2023-05-23T20:22:13;99977.63;;;21.18;60.06
43683;BME280;29285;52.128;21.060;2023-05-23T20:27:15;99980.91;;;21.14;60.22
43683;BME280;29285;52.128;21.060;2023-05-23T20:32:16;99987.05;;;21.09;60.31
43683;BME280;29285;52.128;21.060;2023-05-23T20:37:18;99993.59;;;21.06;60.51
43683;BME280;29285;52.128;21.060;2023-05-23T20:42:19;99991.67;;;21.03;60.73
43683;BME280;29285;52.128;21.060;2023-05-23T20:47:20;99992.61;;;20.99;60.82
43683;BME280;29285;52.128;21.060;2023-05-23T20:52:21;99993.19;;;20.96;60.97
43683;BME280;29285;52.128;21.060;2023-05-23T20:57:22;99993.70;;;20.90;61.15
43683;BME280;29285;52.128;21.060;2023-05-23T21:02:23;99989.95;;;20.86;61.28
43683;BME280;29285;52.128;21.060;2023-05-23T21:07:25;99989.66;;;20.82;61.38
43683;BME280;29285;52.128;21.060;2023-05-23T21:12:27;99989.32;;;20.82;61.56
43683;BME280;29285;52.128;21.060;2023-05-23T21:17:28;99986.36;;;20.81;61.74
43683;BME280;29285;52.128;21.060;2023-05-23T21:22:29;99988.48;;;20.78;61.81
43683;BME280;29285;52.128;21.060;2023-05-23T21:27:30;99986.14;;;20.76;61.99
43683;BME280;29285;52.128;21.060;2023-05-23T21:32:31;99991.48;;;20.75;62.12
43683;BME280;29285;52.128;21.060;2023-05-23T21:37:32;99988.56;;;20.74;62.28
43683;BME280;29285;52.128;21.060;2023-05-23T21:42:33;99991.48;;;20.69;62.32
43683;BME280;29285;52.128;21.060;2023-05-23T21:47:34;99992.80;;;20.65;62.38
43683;BME280;29285;52.128;21.060;2023-05-23T21:52:35;99991.61;;;20.64;62.55
43683;BME280;29285;52.128;21.060;2023-05-23T21:57:36;99993.67;;;20.63;62.71
43683;BME280;29285;52.128;21.060;2023-05-23T22:02:38;99996.07;;;20.58;62.70
43683;BME280;29285;52.128;21.060;2023-05-23T22:07:39;99994.15;;;20.52;62.76
43683;BME280;29285;52.128;21.060;2023-05-23T22:12:40;99992.09;;;20.49;62.89
43683;BME280;29285;52.128;21.060;2023-05-23T22:17:41;99992.29;;;20.45;62.89
43683;BME280;29285;52.128;21.060;2023-05-23T22:22:43;99995.98;;;20.40;63.02
43683;BME280;29285;52.128;21.060;2023-05-23T22:27:44;99997.58;;;20.34;63.03
43683;BME280;29285;52.128;21.060;2023-05-23T22:32:45;99997.23;;;20.28;63.13
43683;BME280;29285;52.128;21.060;2023-05-23T22:37:46;99997.83;;;20.24;63.17
43683;BME280;29285;52.128;21.060;2023-05-23T22:42:47;99991.20;;;20.20;63.19
43683;BME280;29285;52.128;21.060;2023-05-23T22:47:48;99991.74;;;20.17;63.36
43683;BME280;29285;52.128;21.060;2023-05-23T22:52:50;99991.20;;;20.11;63.41
43683;BME280;29285;52.128;21.060;2023-05-23T22:57:51;99990.69;;;20.06;63.48
43683;BME280;29285;52.128;21.060;2023-05-23T23:02:52;99992.80;;;20.00;63.51
43683;BME280;29285;52.128;21.060;2023-05-23T23:07:53;99994.39;;;19.93;63.64
43683;BME280;29285;52.128;21.060;2023-05-23T23:12:54;99989.07;;;19.88;63.68
43683;BME280;29285;52.128;21.060;2023-05-23T23:17:55;99984.66;;;19.82;63.76
43683;BME280;29285;52.128;21.060;2023-05-23T23:22:57;99984.56;;;19.78;63.84
43683;BME280;29285;52.128;21.060;2023-05-23T23:27:58;99977.68;;;19.69;63.92
43683;BME280;29285;52.128;21.060;2023-05-23T23:32:59;99979.20;;;19.61;63.89
43683;BME280;29285;52.128;21.060;2023-05-23T23:38:00;99975.67;;;19.56;63.97
43683;BME280;29285;52.128;21.060;2023-05-23T23:43:01;99974.59;;;19.53;64.09
43683;BME280;29285;52.128;21.060;2023-05-23T23:48:02;99969.86;;;19.50;64.22
43683;BME280;29285;52.128;21.060;2023-05-23T23:53:03;99966.13;;;19.48;64.29
43683;BME280;29285;52.128;21.060;2023-05-23T23:58:04;99964.84;;;19.49;64.56
